Time,TemperatureF,DewpointF,PressureIn,WindDirection,WindDirectionDegrees,WindSpeedMPH,WindSpeedGustMPH,Humidity,HourlyPrecipIn,Conditions,Clouds,dailyrainin,SolarRadiationWatts/m^2,SoftwareType,DateUTC
2013-01-10 00:00:00,46.0,37.0,30.13,NNW,328,0.0,4.0,72,0.00,,,0.00,0,weatherlink.com 1.10,2013-01-10 08:00:00,
2013-01-10 00:15:00,45.9,37.0,30.13,West,259,2.0,6.0,70,0.00,,,0.00,0,weatherlink.com 1.10,2013-01-10 08:15:00,
2013-01-10 00:30:00,45.9,36.0,30.13,NNW,328,0.0,6.0,69,0.00,,,0.00,0,weatherlink.com 1.10,2013-01-10 08:30:00,
2013-01-10 00:45:00,46.1,36.0,30.12,NW,314,0.0,5.0,68,0.00,,,0.00,0,weatherlink.com 1.10,2013-01-10 08:45:00,
2013-01-10 01:00:00,45.7,35.0,30.13,West,261,0.0,3.0,66,0.00,,,0.00,0,weatherlink.com 1.10,2013-01-10 09:00:00,
2013-01-10 01:15:00,45.8,35.0,30.13,West,261,0.0,3.0,66,0.00,,,0.00,0,weatherlink.com 1.10,2013-01-10 09:15:00,
2013-01-10 01:30:00,45.6,35.0,30.13,NNW,327,1.0,4.0,66,0.00,,,0.00,0,weatherlink.com 1.10,2013-01-10 09:30:00,
2013-01-10 01:45:00,45.7,34.0,30.14,WSW,237,2.0,6.0,65,0.00,,,0.00,0,weatherlink.com 1.10,2013-01-10 09:45:00,
2013-01-10 02:00:00,45.7,35.0,30.14,North,2,0.0,5.0,66,0.00,,,0.00,0,weatherlink.com 1.10,2013-01-10 10:00:00,
2013-01-10 02:15:00,45.4,35.0,30.14,West,266,0.0,5.0,66,0.00,,,0.00,0,weatherlink.com 1.10,2013-01-10 10:15:00,
2013-01-10 02:30:00,45.3,35.0,30.14,West,274,1.0,4.0,67,0.00,,,0.00,0,weatherlink.com 1.10,2013-01-10 10:30:00,
2013-01-10 02:45:00,45.4,35.0,30.14,West,272,1.0,6.0,66,0.00,,,0.00,0,weatherlink.com 1.10,2013-01-10 10:45:00,
2013-01-10 03:00:00,45.4,35.0,30.14,North,356,2.0,6.0,67,0.00,,,0.00,0,weatherlink.com 1.10,2013-01-10 11:00:00,
2013-01-10 03:15:00,45.1,35.0,30.14,SSW,198,0.0,4.0,67,0.00,,,0.00,0,weatherlink.com 1.10,2013-01-10 11:15:00,
2013-01-10 03:30:00,45.1,35.0,30.14,SW,236,0.0,4.0,67,0.00,,,0.00,0,weatherlink.com 1.10,2013-01-10 11:30:00,
2013-01-10 03:45:00,45.4,35.0,30.14,NW,326,2.0,4.0,66,0.00,,,0.00,0,weatherlink.com 1.10,2013-01-10 11:45:00,
2013-01-10 04:00:00,45.5,34.0,30.13,SW,234,0.0,8.0,65,0.00,,,0.00,0,weatherlink.com 1.10,2013-01-10 12:00:00,
2013-01-10 04:15:00,45.2,34.0,30.13,West,272,0.0,5.0,65,0.00,,,0.00,0,weatherlink.com 1.10,2013-01-10 12:15:00,
2013-01-10 04:30:00,45.0,35.0,30.13,West,272,1.0,4.0,67,0.00,,,0.00,0,weatherlink.com 1.10,2013-01-10 12:30:00,
2013-01-10 04:45:00,44.9,35.0,30.12,WSW,251,2.0,7.0,69,0.00,,,0.00,0,weatherlink.com 1.10,2013-01-10 12:45:00,
2013-01-10 05:00:00,44.8,36.0,30.13,NNW,340,2.0,8.0,71,0.00,,,0.00,0,weatherlink.com 1.10,2013-01-10 13:00:00,
2013-01-10 05:15:00,44.6,36.0,30.14,NW,323,3.0,7.0,72,0.00,,,0.00,0,weatherlink.com 1.10,2013-01-10 13:15:00,
2013-01-10 05:30:00,44.6,36.0,30.13,NW,324,3.0,8.0,71,0.00,,,0.00,0,weatherlink.com 1.10,2013-01-10 13:30:00,
2013-01-10 05:45:00,44.5,36.0,30.14,North,351,1.0,6.0,73,0.00,,,0.00,0,weatherlink.com 1.10,2013-01-10 13:45:00,
2013-01-10 06:00:00,44.3,37.0,30.14,NW,322,0.0,4.0,74,0.00,,,0.00,0,weatherlink.com 1.10,2013-01-10 14:00:00,
2013-01-10 06:15:00,44.2,36.0,30.14,SW,233,2.0,3.0,73,0.00,,,0.00,0,weatherlink.com 1.10,2013-01-10 14:15:00,
2013-01-10 06:30:00,44.2,35.0,30.14,NNW,329,0.0,6.0,71,0.00,,,0.00,0,weatherlink.com 1.10,2013-01-10 14:30:00,
2013-01-10 06:45:00,44.1,35.0,30.14,WSW,240,3.0,7.0,71,0.00,,,0.00,0,weatherlink.com 1.10,2013-01-10 14:45:00,
2013-01-10 07:00:00,44.1,36.0,30.14,West,269,2.0,8.0,72,0.00,,,0.00,0,weatherlink.com 1.10,2013-01-10 15:00:00,
2013-01-10 07:15:00,-999.0,-99.9,30.14,North,-999,-999.0,-999.0,-999,0.00,,,0.00,,weatherlink.com 1.10,2013-01-10 15:15:00,
2013-01-10 07:30:00,-999.0,-99.9,30.15,North,-999,-999.0,-999.0,-999,0.00,,,0.00,,weatherlink.com 1.10,2013-01-10 15:30:00,
2013-01-10 07:45:00,-999.0,-99.9,30.15,North,-999,-999.0,-999.0,-999,0.00,,,0.00,,weatherlink.com 1.10,2013-01-10 15:45:00,
2013-01-10 08:00:00,-999.0,-99.9,30.16,North,-999,-999.0,-999.0,-999,0.00,,,0.00,,weatherlink.com 1.10,2013-01-10 16:00:00,
2013-01-10 08:15:00,44.1,35.0,30.16,SSW,203,1.0,9.0,70,0.00,,,0.00,26,weatherlink.com 1.10,2013-01-10 16:15:00,
2013-01-10 08:31:00,44.3,35.0,30.16,SW,229,0.0,7.0,70,0.00,,,0.00,116,weatherlink.com 1.10,2013-01-10 16:31:00,
2013-01-10 08:46:00,44.9,35.0,30.16,WSW,240,3.0,4.0,68,0.00,,,0.00,167,weatherlink.com 1.10,2013-01-10 16:46:00,
2013-01-10 09:01:00,45.3,34.0,30.16,SW,215,1.0,7.0,66,0.00,,,0.00,218,weatherlink.com 1.10,2013-01-10 17:01:00,
2013-01-10 09:16:00,46.5,34.0,30.17,NNW,334,2.0,8.0,63,0.00,,,0.00,255,weatherlink.com 1.10,2013-01-10 17:16:00,
2013-01-10 09:31:00,47.1,35.0,30.17,West,261,0.0,8.0,63,0.00,,,0.00,294,weatherlink.com 1.10,2013-01-10 17:31:00,
2013-01-10 09:46:00,47.8,34.0,30.17,WSW,256,6.0,8.0,59,0.00,,,0.00,327,weatherlink.com 1.10,2013-01-10 17:46:00,
2013-01-10 10:01:00,48.3,34.0,30.17,NW,310,3.0,7.0,58,0.00,,,0.00,359,weatherlink.com 1.10,2013-01-10 18:01:00,
2013-01-10 10:16:00,49.0,34.0,30.17,NE,50,2.0,9.0,57,0.00,,,0.00,392,weatherlink.com 1.10,2013-01-10 18:16:00,
2013-01-10 10:31:00,49.5,34.0,30.16,NNE,27,3.0,7.0,56,0.00,,,0.00,417,weatherlink.com 1.10,2013-01-10 18:31:00,
2013-01-10 10:46:00,50.7,34.0,30.16,West,259,1.0,9.0,53,0.00,,,0.00,439,weatherlink.com 1.10,2013-01-10 18:46:00,
2013-01-10 11:01:00,50.4,33.0,30.16,NW,304,7.0,8.0,52,0.00,,,0.00,462,weatherlink.com 1.10,2013-01-10 19:01:00,
2013-01-10 11:16:00,51.3,34.0,30.16,North,349,1.0,8.0,52,0.00,,,0.00,480,weatherlink.com 1.10,2013-01-10 19:16:00,
2013-01-10 11:46:00,52.1,33.0,30.15,WSW,240,7.0,9.0,48,0.00,,,0.00,513,weatherlink.com 1.10,2013-01-10 19:46:00,
2013-01-10 12:16:00,53.6,33.0,30.14,WNW,297,1.0,9.0,45,0.00,,,0.00,533,weatherlink.com 1.10,2013-01-10 20:16:00,
2013-01-10 12:31:00,52.3,33.0,30.13,North,7,4.0,11.0,48,0.00,,,0.00,522,weatherlink.com 1.10,2013-01-10 20:31:00,
2013-01-10 12:45:00,51.6,34.0,30.13,NNE,12,6.0,9.0,52,0.00,,,0.00,515,weatherlink.com 1.10,2013-01-10 20:45:00,
2013-01-10 13:00:00,53.2,34.0,30.12,NNE,16,3.0,7.0,49,0.00,,,0.00,199,weatherlink.com 1.10,2013-01-10 21:00:00,
2013-01-10 13:15:00,53.7,34.0,30.12,West,260,4.0,7.0,47,0.00,,,0.00,510,weatherlink.com 1.10,2013-01-10 21:15:00,
2013-01-10 13:30:00,53.8,33.0,30.12,NW,320,3.0,8.0,46,0.00,,,0.00,492,weatherlink.com 1.10,2013-01-10 21:30:00,
2013-01-10 13:45:00,53.6,33.0,30.12,NNW,328,3.0,13.0,46,0.00,,,0.00,58,weatherlink.com 1.10,2013-01-10 21:45:00,
2013-01-10 14:00:00,52.7,33.0,30.13,SW,235,5.0,9.0,48,0.00,,,0.00,452,weatherlink.com 1.10,2013-01-10 22:00:00,
2013-01-10 14:15:00,53.2,33.0,30.12,WSW,246,4.0,11.0,46,0.00,,,0.00,429,weatherlink.com 1.10,2013-01-10 22:15:00,
2013-01-10 14:30:00,53.5,34.0,30.13,NW,309,3.0,11.0,48,0.00,,,0.00,441,weatherlink.com 1.10,2013-01-10 22:30:00,
2013-01-10 14:45:00,52.9,33.0,30.13,NNE,14,0.0,13.0,48,0.00,,,0.00,429,weatherlink.com 1.10,2013-01-10 22:45:00,
2013-01-10 15:01:00,53.1,33.0,30.13,WSW,242,7.0,7.0,46,0.00,,,0.00,295,weatherlink.com 1.10,2013-01-10 23:01:00,
2013-01-10 15:15:00,52.6,33.0,30.13,WSW,257,3.0,10.0,48,0.00,,,0.00,287,weatherlink.com 1.10,2013-01-10 23:15:00,
2013-01-10 15:30:00,52.1,33.0,30.14,ENE,77,1.0,11.0,49,0.00,,,0.00,234,weatherlink.com 1.10,2013-01-10 23:30:00,
2013-01-10 16:00:00,51.8,34.0,30.14,WSW,254,2.0,6.0,52,0.00,,,0.00,134,weatherlink.com 1.10,2013-01-11 00:00:00,
2013-01-10 16:15:00,50.9,34.0,30.14,SSW,204,2.0,7.0,53,0.00,,,0.00,84,weatherlink.com 1.10,2013-01-11 00:15:00,
2013-01-10 16:30:00,50.6,34.0,30.14,WNW,282,4.0,7.0,54,0.00,,,0.00,25,weatherlink.com 1.10,2013-01-11 00:30:00,
2013-01-10 16:45:00,49.9,35.0,30.14,SSW,211,2.0,7.0,57,0.00,,,0.00,18,weatherlink.com 1.10,2013-01-11 00:45:00,
2013-01-10 17:00:00,49.2,35.0,30.15,WNW,291,6.0,10.0,58,0.00,,,0.00,11,weatherlink.com 1.10,2013-01-11 01:00:00,
2013-01-10 17:16:00,48.7,36.0,30.15,WSW,237,3.0,6.0,61,0.00,,,0.00,0,weatherlink.com 1.10,2013-01-11 01:16:00,
2013-01-10 17:31:00,48.3,36.0,30.15,WNW,294,3.0,6.0,63,0.00,,,0.00,0,weatherlink.com 1.10,2013-01-11 01:31:00,
2013-01-10 17:46:00,48.0,36.0,30.16,NNW,339,2.0,7.0,63,0.00,,,0.00,0,weatherlink.com 1.10,2013-01-11 01:46:00,
2013-01-10 18:01:00,47.9,36.0,30.17,SSW,195,1.0,6.0,63,0.00,,,0.00,0,weatherlink.com 1.10,2013-01-11 02:01:00,
2013-01-10 18:16:00,47.7,36.0,30.17,NNE,27,3.0,8.0,63,0.00,,,0.00,0,weatherlink.com 1.10,2013-01-11 02:16:00,
2013-01-10 18:31:00,47.6,35.0,30.17,West,270,1.0,7.0,62,0.00,,,0.00,0,weatherlink.com 1.10,2013-01-11 02:31:00,
2013-01-10 18:46:00,47.3,35.0,30.18,SSE,148,0.0,6.0,63,0.00,,,0.00,0,weatherlink.com 1.10,2013-01-11 02:46:00,
2013-01-10 19:01:00,47.1,35.0,30.18,WSW,242,3.0,7.0,64,0.00,,,0.00,0,weatherlink.com 1.10,2013-01-11 03:01:00,
2013-01-10 19:16:00,47.1,35.0,30.18,West,259,0.0,3.0,63,0.00,,,0.00,0,weatherlink.com 1.10,2013-01-11 03:16:00,
2013-01-10 19:31:00,47.2,35.0,30.19,WSW,247,2.0,6.0,62,0.00,,,0.00,0,weatherlink.com 1.10,2013-01-11 03:31:00,
2013-01-10 19:46:00,47.0,34.0,30.19,West,261,3.0,10.0,60,0.00,,,0.00,0,weatherlink.com 1.10,2013-01-11 03:46:00,
2013-01-10 20:01:00,46.8,33.0,30.19,WSW,253,4.0,11.0,58,0.00,,,0.00,0,weatherlink.com 1.10,2013-01-11 04:01:00,
2013-01-10 20:16:00,46.6,32.0,30.19,NW,312,0.0,8.0,58,0.00,,,0.00,0,weatherlink.com 1.10,2013-01-11 04:16:00,
2013-01-10 20:31:00,46.5,32.0,30.20,NNW,344,1.0,8.0,57,0.00,,,0.00,0,weatherlink.com 1.10,2013-01-11 04:31:00,
2013-01-10 20:46:00,46.6,32.0,30.20,WNW,297,0.0,9.0,57,0.00,,,0.00,0,weatherlink.com 1.10,2013-01-11 04:46:00,
2013-01-10 21:16:00,46.0,33.0,30.21,NNW,336,1.0,8.0,61,0.00,,,0.00,0,weatherlink.com 1.10,2013-01-11 05:16:00,
2013-01-10 21:31:00,45.6,33.0,30.22,WSW,241,0.0,4.0,62,0.00,,,0.00,0,weatherlink.com 1.10,2013-01-11 05:31:00,
2013-01-10 21:46:00,45.6,34.0,30.22,NW,314,2.0,4.0,63,0.00,,,0.00,0,weatherlink.com 1.10,2013-01-11 05:46:00,
2013-01-10 22:01:00,45.6,31.0,30.22,NW,314,8.0,8.0,58,0.00,,,0.00,0,weatherlink.com 1.10,2013-01-11 06:01:00,
2013-01-10 22:16:00,45.8,31.0,30.23,North,356,0.0,10.0,57,0.00,,,0.00,0,weatherlink.com 1.10,2013-01-11 06:16:00,
2013-01-10 22:31:00,45.8,31.0,30.23,NW,305,1.0,6.0,56,0.00,,,0.00,0,weatherlink.com 1.10,2013-01-11 06:31:00,
2013-01-10 22:46:00,45.6,31.0,30.23,North,351,6.0,10.0,56,0.00,,,0.00,0,weatherlink.com 1.10,2013-01-11 06:46:00,
2013-01-10 23:01:00,45.6,31.0,30.24,NW,322,1.0,5.0,56,0.00,,,0.00,0,weatherlink.com 1.10,2013-01-11 07:01:00,
2013-01-10 23:16:00,45.7,30.0,30.23,NW,326,0.0,10.0,55,0.00,,,0.00,0,weatherlink.com 1.10,2013-01-11 07:16:00,
2013-01-10 23:31:00,45.6,30.0,30.23,NW,321,1.0,8.0,55,0.00,,,0.00,0,weatherlink.com 1.10,2013-01-11 07:31:00,
2013-01-10 23:46:00,45.3,32.0,30.23,WSW,256,0.0,4.0,59,0.00,,,0.00,0,weatherlink.com 1.10,2013-01-11 07:46:00,